sensor_id;sensor_type;location;lat;lon;timestamp;pressure;altitude;pressure_sealevel;temperature
71205;BMP180;58935;54.498;18.544;2023-01-08T00:00:51;100374.80;;;4.50
71205;BMP180;58935;54.498;18.544;2023-01-08T00:03:17;100374.40;;;4.50
71205;BMP180;58935;54.498;18.544;2023-01-08T00:05:42;100365.60;;;4.50
71205;BMP180;58935;54.498;18.544;2023-01-08T00:08:09;100371.80;;;4.50
71205;BMP180;58935;54.498;18.544;2023-01-08T00:10:36;100367.60;;;4.50
71205;BMP180;58935;54.498;18.544;2023-01-08T00:13:01;100357.20;;;4.50
71205;BMP180;58935;54.498;18.544;2023-01-08T00:15:27;100355.40;;;4.50
71205;BMP180;58935;54.498;18.544;2023-01-08T00:17:55;100356.40;;;4.50
71205;BMP180;58935;54.498;18.544;2023-01-08T00:20:21;100349.60;;;4.50
71205;BMP180;58935;54.498;18.544;2023-01-08T00:22:49;100352.40;;;4.60
71205;BMP180;58935;54.498;18.544;2023-01-08T00:25:15;100352.80;;;4.60
71205;BMP180;58935;54.498;18.544;2023-01-08T00:27:41;100358.00;;;4.70
71205;BMP180;58935;54.498;18.544;2023-01-08T00:30:07;100358.40;;;4.70
71205;BMP180;58935;54.498;18.544;2023-01-08T00:32:33;100357.40;;;4.70
71205;BMP180;58935;54.498;18.544;2023-01-08T00:34:59;100355.00;;;4.70
71205;BMP180;58935;54.498;18.544;2023-01-08T00:37:27;100349.40;;;4.70
71205;BMP180;58935;54.498;18.544;2023-01-08T00:39:56;100344.20;;;4.70
71205;BMP180;58935;54.498;18.544;2023-01-08T00:42:21;100343.60;;;4.80
71205;BMP180;58935;54.498;18.544;2023-01-08T00:44:47;100346.00;;;4.80
71205;BMP180;58935;54.498;18.544;2023-01-08T00:47:13;100348.40;;;4.90
71205;BMP180;58935;54.498;18.544;2023-01-08T00:49:39;100347.00;;;4.90
71205;BMP180;58935;54.498;18.544;2023-01-08T00:52:05;100342.20;;;4.94
71205;BMP180;58935;54.498;18.544;2023-01-08T00:54:30;100339.80;;;5.00
71205;BMP180;58935;54.498;18.544;2023-01-08T00:56:56;100341.00;;;5.00
71205;BMP180;58935;54.498;18.544;2023-01-08T00:59:22;100347.80;;;5.00
71205;BMP180;58935;54.498;18.544;2023-01-08T01:01:47;100347.40;;;5.00
71205;BMP180;58935;54.498;18.544;2023-01-08T01:04:13;100344.00;;;5.00
71205;BMP180;58935;54.498;18.544;2023-01-08T01:06:40;100347.20;;;5.02
71205;BMP180;58935;54.498;18.544;2023-01-08T01:09:06;100347.00;;;5.04
71205;BMP180;58935;54.498;18.544;2023-01-08T01:11:32;100345.60;;;5.06
71205;BMP180;58935;54.498;18.544;2023-01-08T01:13:57;100347.20;;;5.10
71205;BMP180;58935;54.498;18.544;2023-01-08T01:16:23;100346.60;;;5.10
71205;BMP180;58935;54.498;18.544;2023-01-08T01:18:49;100344.40;;;5.10
71205;BMP180;58935;54.498;18.544;2023-01-08T01:21:22;100341.60;;;5.10
71205;BMP180;58935;54.498;18.544;2023-01-08T01:23:47;100334.20;;;5.10
71205;BMP180;58935;54.498;18.544;2023-01-08T01:26:17;100325.60;;;5.16
71205;BMP180;58935;54.498;18.544;2023-01-08T01:28:45;100325.00;;;5.20
71205;BMP180;58935;54.498;18.544;2023-01-08T01:31:11;100311.60;;;5.20
71205;BMP180;58935;54.498;18.544;2023-01-08T01:33:38;100304.60;;;5.20
71205;BMP180;58935;54.498;18.544;2023-01-08T01:36:07;100301.60;;;5.20
71205;BMP180;58935;54.498;18.544;2023-01-08T01:38:33;100292.80;;;5.20
71205;BMP180;58935;54.498;18.544;2023-01-08T01:40:59;100290.00;;;5.20
71205;BMP180;58935;54.498;18.544;2023-01-08T01:45:56;100286.40;;;5.10
71205;BMP180;58935;54.498;18.544;2023-01-08T01:48:21;100288.60;;;5.10
71205;BMP180;58935;54.498;18.544;2023-01-08T01:50:50;100283.20;;;5.10
71205;BMP180;58935;54.498;18.544;2023-01-08T01:53:22;100283.80;;;5.08
71205;BMP180;58935;54.498;18.544;2023-01-08T01:55:48;100282.20;;;5.00
71205;BMP180;58935;54.498;18.544;2023-01-08T01:58:20;100275.20;;;5.00
71205;BMP180;58935;54.498;18.544;2023-01-08T02:00:47;100271.80;;;5.00
71205;BMP180;58935;54.498;18.544;2023-01-08T02:03:14;100267.60;;;5.00
71205;BMP180;58935;54.498;18.544;2023-01-08T02:08:24;100276.40;;;5.10
71205;BMP180;58935;54.498;18.544;2023-01-08T02:10:57;100272.00;;;5.06
71205;BMP180;58935;54.498;18.544;2023-01-08T02:13:29;100272.00;;;5.10
71205;BMP180;58935;54.498;18.544;2023-01-08T02:16:13;100282.80;;;5.10
71205;BMP180;58935;54.498;18.544;2023-01-08T02:18:45;100285.80;;;5.10
71205;BMP180;58935;54.498;18.544;2023-01-08T02:21:20;100284.60;;;5.10
71205;BMP180;58935;54.498;18.544;2023-01-08T02:24:11;100280.00;;;5.10
71205;BMP180;58935;54.498;18.544;2023-01-08T02:26:39;100278.40;;;5.10
71205;BMP180;58935;54.498;18.544;2023-01-08T02:29:07;100272.40;;;5.10
71205;BMP180;58935;54.498;18.544;2023-01-08T02:31:38;100265.80;;;5.20
71205;BMP180;58935;54.498;18.544;2023-01-08T02:34:04;100268.20;;;5.20
71205;BMP180;58935;54.498;18.544;2023-01-08T02:36:34;100269.00;;;5.20
71205;BMP180;58935;54.498;18.544;2023-01-08T02:39:33;100262.00;;;5.20
71205;BMP180;58935;54.498;18.544;2023-01-08T02:42:08;100254.60;;;5.20
71205;BMP180;58935;54.498;18.544;2023-01-08T02:44:43;100246.80;;;5.20
71205;BMP180;58935;54.498;18.544;2023-01-08T02:47:24;100244.40;;;5.20
71205;BMP180;58935;54.498;18.544;2023-01-08T02:49:59;100244.20;;;5.20
71205;BMP180;58935;54.498;18.544;2023-01-08T02:52:26;100235.80;;;5.20
71205;BMP180;58935;54.498;18.544;2023-01-08T02:54:54;100234.80;;;5.20
71205;BMP180;58935;54.498;18.544;2023-01-08T02:57:21;100238.40;;;5.18
71205;BMP180;58935;54.498;18.544;2023-01-08T02:59:49;100239.60;;;5.12
71205;BMP180;58935;54.498;18.544;2023-01-08T03:02:18;100244.80;;;5.16
71205;BMP180;58935;54.498;18.544;2023-01-08T03:04:51;100245.00;;;5.12
71205;BMP180;58935;54.498;18.544;2023-01-08T03:07:17;100242.40;;;5.12
71205;BMP180;58935;54.498;18.544;2023-01-08T03:09:43;100237.20;;;5.20
71205;BMP180;58935;54.498;18.544;2023-01-08T03:12:15;100236.40;;;5.20
71205;BMP180;58935;54.498;18.544;2023-01-08T03:14:47;100227.80;;;5.20
71205;BMP180;58935;54.498;18.544;2023-01-08T03:17:18;100231.80;;;5.20
71205;BMP180;58935;54.498;18.544;2023-01-08T03:19:50;100228.80;;;5.20
71205;BMP180;58935;54.498;18.544;2023-01-08T03:22:18;100236.00;;;5.20
71205;BMP180;58935;54.498;18.544;2023-01-08T03:24:46;100230.00;;;5.20
71205;BMP180;58935;54.498;18.544;2023-01-08T03:27:17;100226.80;;;5.20
71205;BMP180;58935;54.498;18.544;2023-01-08T03:29:45;100220.20;;;5.20
71205;BMP180;58935;54.498;18.544;2023-01-08T03:32:16;100224.60;;;5.24
71205;BMP180;58935;54.498;18.544;2023-01-08T03:34:46;100220.60;;;5.20
71205;BMP180;58935;54.498;18.544;2023-01-08T03:37:15;100219.00;;;5.20
71205;BMP180;58935;54.498;18.544;2023-01-08T03:39:46;100214.80;;;5.20
71205;BMP180;58935;54.498;18.544;2023-01-08T03:42:15;100223.40;;;5.24
71205;BMP180;58935;54.498;18.544;2023-01-08T03:44:41;100224.20;;;5.30
71205;BMP180;58935;54.498;18.544;2023-01-08T03:47:09;100218.80;;;5.24
71205;BMP180;58935;54.498;18.544;2023-01-08T03:49:36;100220.40;;;5.20
71205;BMP180;58935;54.498;18.544;2023-01-08T03:52:03;100220.20;;;5.20
71205;BMP180;58935;54.498;18.544;2023-01-08T03:54:30;100221.60;;;5.20
71205;BMP180;58935;54.498;18.544;2023-01-08T03:56:56;100225.60;;;5.20
71205;BMP180;58935;54.498;18.544;2023-01-08T03:59:22;100228.20;;;5.20
71205;BMP180;58935;54.498;18.544;2023-01-08T04:01:47;100232.40;;;5.20
71205;BMP180;58935;54.498;18.544;2023-01-08T04:04:13;100229.00;;;5.20
71205;BMP180;58935;54.498;18.544;2023-01-08T04:06:39;100222.00;;;5.20
71205;BMP180;58935;54.498;18.544;2023-01-08T04:09:07;100223.80;;;5.20
71205;BMP180;58935;54.498;18.544;2023-01-08T04:11:35;100225.00;;;5.20
71205;BMP180;58935;54.498;18.544;2023-01-08T04:14:01;100221.00;;;5.20
71205;BMP180;58935;54.498;18.544;2023-01-08T04:16:26;100222.00;;;5.20
71205;BMP180;58935;54.498;18.544;2023-01-08T04:18:52;100217.40;;;5.20
71205;BMP180;58935;54.498;18.544;2023-01-08T04:21:17;100211.80;;;5.20
71205;BMP180;58935;54.498;18.544;2023-01-08T04:23:43;100212.40;;;5.20
71205;BMP180;58935;54.498;18.544;2023-01-08T04:26:09;100207.40;;;5.22
71205;BMP180;58935;54.498;18.544;2023-01-08T04:28:35;100212.60;;;5.20
71205;BMP180;58935;54.498;18.544;2023-01-08T04:31:05;100211.80;;;5.20
71205;BMP180;58935;54.498;18.544;2023-01-08T04:33:31;100204.00;;;5.20
71205;BMP180;58935;54.498;18.544;2023-01-08T04:35:57;100194.00;;;5.20
71205;BMP180;58935;54.498;18.544;2023-01-08T04:38:22;100185.80;;;5.20
71205;BMP180;58935;54.498;18.544;2023-01-08T04:40:48;100175.40;;;5.28
71205;BMP180;58935;54.498;18.544;2023-01-08T04:43:13;100175.40;;;5.30
71205;BMP180;58935;54.498;18.544;2023-01-08T04:45:39;100175.40;;;5.30
71205;BMP180;58935;54.498;18.544;2023-01-08T04:48:04;100177.20;;;5.28
71205;BMP180;58935;54.498;18.544;2023-01-08T04:50:30;100178.00;;;5.30
71205;BMP180;58935;54.498;18.544;2023-01-08T04:52:57;100167.20;;;5.24
71205;BMP180;58935;54.498;18.544;2023-01-08T04:55:23;100165.40;;;5.20
71205;BMP180;58935;54.498;18.544;2023-01-08T04:57:51;100160.00;;;5.20
71205;BMP180;58935;54.498;18.544;2023-01-08T05:00:16;100161.00;;;5.20
71205;BMP180;58935;54.498;18.544;2023-01-08T05:02:42;100158.60;;;5.20
71205;BMP180;58935;54.498;18.544;2023-01-08T05:05:07;100168.00;;;5.20
71205;BMP180;58935;54.498;18.544;2023-01-08T05:07:33;100164.20;;;5.28
71205;BMP180;58935;54.498;18.544;2023-01-08T05:09:58;100154.00;;;5.30
71205;BMP180;58935;54.498;18.544;2023-01-08T05:12:24;100138.80;;;5.30
71205;BMP180;58935;54.498;18.544;2023-01-08T05:14:50;100136.40;;;5.30
71205;BMP180;58935;54.498;18.544;2023-01-08T05:17:15;100131.20;;;5.30
71205;BMP180;58935;54.498;18.544;2023-01-08T05:19:41;100121.20;;;5.30
71205;BMP180;58935;54.498;18.544;2023-01-08T05:22:06;100104.80;;;5.26
71205;BMP180;58935;54.498;18.544;2023-01-08T05:24:32;100105.20;;;5.20
71205;BMP180;58935;54.498;18.544;2023-01-08T05:26:57;100108.80;;;5.20
71205;BMP180;58935;54.498;18.544;2023-01-08T05:29:22;100105.40;;;5.20
71205;BMP180;58935;54.498;18.544;2023-01-08T05:31:48;100106.20;;;5.16
71205;BMP180;58935;54.498;18.544;2023-01-08T05:34:15;100103.00;;;5.10
71205;BMP180;58935;54.498;18.544;2023-01-08T05:36:41;100102.60;;;5.10
71205;BMP180;58935;54.498;18.544;2023-01-08T05:39:07;100097.40;;;5.10
71205;BMP180;58935;54.498;18.544;2023-01-08T05:41:33;100093.60;;;5.10
71205;BMP180;58935;54.498;18.544;2023-01-08T05:43:59;100087.20;;;5.10
71205;BMP180;58935;54.498;18.544;2023-01-08T05:46:24;100086.60;;;5.10
71205;BMP180;58935;54.498;18.544;2023-01-08T05:48:50;100080.80;;;5.10
71205;BMP180;58935;54.498;18.544;2023-01-08T05:51:15;100076.20;;;5.10
71205;BMP180;58935;54.498;18.544;2023-01-08T05:53:41;100076.80;;;5.10
71205;BMP180;58935;54.498;18.544;2023-01-08T05:56:07;100067.00;;;5.10
71205;BMP180;58935;54.498;18.544;2023-01-08T05:58:34;100061.20;;;5.10
71205;BMP180;58935;54.498;18.544;2023-01-08T06:01:04;100056.60;;;5.10
71205;BMP180;58935;54.498;18.544;2023-01-08T06:03:33;100058.20;;;5.10
71205;BMP180;58935;54.498;18.544;2023-01-08T06:06:01;100049.80;;;5.10
71205;BMP180;58935;54.498;18.544;2023-01-08T06:08:28;100054.20;;;5.10
71205;BMP180;58935;54.498;18.544;2023-01-08T06:10:54;100055.00;;;5.10
71205;BMP180;58935;54.498;18.544;2023-01-08T06:13:22;100056.20;;;5.10
71205;BMP180;58935;54.498;18.544;2023-01-08T06:15:47;100052.20;;;5.10
71205;BMP180;58935;54.498;18.544;2023-01-08T06:18:13;100048.40;;;5.10
71205;BMP180;58935;54.498;18.544;2023-01-08T06:20:38;100043.20;;;5.10
71205;BMP180;58935;54.498;18.544;2023-01-08T06:23:04;100034.40;;;5.10
71205;BMP180;58935;54.498;18.544;2023-01-08T06:25:29;100021.00;;;5.10
71205;BMP180;58935;54.498;18.544;2023-01-08T06:27:55;100014.60;;;5.10
71205;BMP180;58935;54.498;18.544;2023-01-08T06:30:20;100014.80;;;5.10
71205;BMP180;58935;54.498;18.544;2023-01-08T06:32:46;100026.40;;;5.10
71205;BMP180;58935;54.498;18.544;2023-01-08T06:35:11;100033.20;;;5.10
71205;BMP180;58935;54.498;18.544;2023-01-08T06:37:37;100030.00;;;5.18
71205;BMP180;58935;54.498;18.544;2023-01-08T06:40:02;100034.00;;;5.12
71205;BMP180;58935;54.498;18.544;2023-01-08T06:42:28;100037.60;;;5.12
71205;BMP180;58935;54.498;18.544;2023-01-08T06:44:53;100031.00;;;5.12
71205;BMP180;58935;54.498;18.544;2023-01-08T06:47:19;100032.20;;;5.12
71205;BMP180;58935;54.498;18.544;2023-01-08T06:49:44;100025.40;;;5.10
71205;BMP180;58935;54.498;18.544;2023-01-08T06:52:10;100025.60;;;5.10
71205;BMP180;58935;54.498;18.544;2023-01-08T06:54:35;100016.60;;;5.10
71205;BMP180;58935;54.498;18.544;2023-01-08T06:57:01;100017.20;;;5.10
71205;BMP180;58935;54.498;18.544;2023-01-08T06:59:27;100014.60;;;5.10
71205;BMP180;58935;54.498;18.544;2023-01-08T07:01:52;100028.00;;;5.10
71205;BMP180;58935;54.498;18.544;2023-01-08T07:04:18;100024.20;;;5.10
71205;BMP180;58935;54.498;18.544;2023-01-08T07:06:45;100016.00;;;5.14
71205;BMP180;58935;54.498;18.544;2023-01-08T07:09:11;100018.60;;;5.14
71205;BMP180;58935;54.498;18.544;2023-01-08T07:11:37;100019.00;;;5.20
71205;BMP180;58935;54.498;18.544;2023-01-08T07:14:03;100027.00;;;5.10
71205;BMP180;58935;54.498;18.544;2023-01-08T07:16:29;100016.80;;;5.18
71205;BMP180;58935;54.498;18.544;2023-01-08T07:18:54;100019.00;;;5.20
71205;BMP180;58935;54.498;18.544;2023-01-08T07:21:19;100016.60;;;5.20
71205;BMP180;58935;54.498;18.544;2023-01-08T07:23:48;100023.20;;;5.20
71205;BMP180;58935;54.498;18.544;2023-01-08T07:26:13;100016.80;;;5.20
71205;BMP180;58935;54.498;18.544;2023-01-08T07:28:39;100016.00;;;5.20
71205;BMP180;58935;54.498;18.544;2023-01-08T07:31:04;100021.60;;;5.20
71205;BMP180;58935;54.498;18.544;2023-01-08T07:33:30;100022.80;;;5.20
71205;BMP180;58935;54.498;18.544;2023-01-08T07:35:56;100019.60;;;5.20
71205;BMP180;58935;54.498;18.544;2023-01-08T07:38:22;100022.20;;;5.20
71205;BMP180;58935;54.498;18.544;2023-01-08T07:40:48;100023.00;;;5.20
71205;BMP180;58935;54.498;18.544;2023-01-08T07:43:14;100029.20;;;5.30
71205;BMP180;58935;54.498;18.544;2023-01-08T07:45:40;100021.60;;;5.22
71205;BMP180;58935;54.498;18.544;2023-01-08T07:48:08;100019.60;;;5.20
71205;BMP180;58935;54.498;18.544;2023-01-08T07:50:42;100019.00;;;5.20
71205;BMP180;58935;54.498;18.544;2023-01-08T07:53:09;100025.40;;;5.20
71205;BMP180;58935;54.498;18.544;2023-01-08T07:55:34;100012.20;;;5.20
71205;BMP180;58935;54.498;18.544;2023-01-08T07:58:06;100014.60;;;5.20
71205;BMP180;58935;54.498;18.544;2023-01-08T08:00:31;100019.40;;;5.20
71205;BMP180;58935;54.498;18.544;2023-01-08T08:03:01;100017.60;;;5.20
71205;BMP180;58935;54.498;18.544;2023-01-08T08:05:27;100020.80;;;5.20
71205;BMP180;58935;54.498;18.544;2023-01-08T08:07:53;100018.20;;;5.20
71205;BMP180;58935;54.498;18.544;2023-01-08T08:10:18;100016.00;;;5.22
71205;BMP180;58935;54.498;18.544;2023-01-08T08:12:44;100006.40;;;5.30
71205;BMP180;58935;54.498;18.544;2023-01-08T08:15:10;100007.00;;;5.30
71205;BMP180;58935;54.498;18.544;2023-01-08T08:17:35;100012.00;;;5.30
71205;BMP180;58935;54.498;18.544;2023-01-08T08:20:01;100010.60;;;5.30
71205;BMP180;58935;54.498;18.544;2023-01-08T08:22:26;100014.80;;;5.30
71205;BMP180;58935;54.498;18.544;2023-01-08T08:24:51;100013.00;;;5.30
71205;BMP180;58935;54.498;18.544;2023-01-08T08:27:17;100008.40;;;5.30
71205;BMP180;58935;54.498;18.544;2023-01-08T08:29:42;100009.80;;;5.30
71205;BMP180;58935;54.498;18.544;2023-01-08T08:32:08;99999.40;;;5.30
71205;BMP180;58935;54.498;18.544;2023-01-08T08:34:33;99989.40;;;5.26
71205;BMP180;58935;54.498;18.544;2023-01-08T08:36:59;99985.80;;;5.20
71205;BMP180;58935;54.498;18.544;2023-01-08T08:39:29;99985.40;;;5.20
71205;BMP180;58935;54.498;18.544;2023-01-08T08:41:54;99989.20;;;5.20
71205;BMP180;58935;54.498;18.544;2023-01-08T08:44:19;99986.40;;;5.20
71205;BMP180;58935;54.498;18.544;2023-01-08T08:46:47;99995.60;;;5.18
71205;BMP180;58935;54.498;18.544;2023-01-08T08:49:12;99987.60;;;5.20
71205;BMP180;58935;54.498;18.544;2023-01-08T08:51:38;99989.60;;;5.20
71205;BMP180;58935;54.498;18.544;2023-01-08T08:54:03;99989.80;;;5.20
71205;BMP180;58935;54.498;18.544;2023-01-08T08:56:29;99984.00;;;5.30
71205;BMP180;58935;54.498;18.544;2023-01-08T08:58:55;99979.00;;;5.30
71205;BMP180;58935;54.498;18.544;2023-01-08T09:01:22;99985.00;;;5.30
71205;BMP180;58935;54.498;18.544;2023-01-08T09:03:47;99980.00;;;5.30
71205;BMP180;58935;54.498;18.544;2023-01-08T09:06:14;99974.20;;;5.30
71205;BMP180;58935;54.498;18.544;2023-01-08T09:08:39;99973.60;;;5.30
71205;BMP180;58935;54.498;18.544;2023-01-08T09:11:05;99975.80;;;5.30
71205;BMP180;58935;54.498;18.544;2023-01-08T09:13:31;99977.00;;;5.30
71205;BMP180;58935;54.498;18.544;2023-01-08T09:15:57;99982.40;;;5.30
71205;BMP180;58935;54.498;18.544;2023-01-08T09:18:23;99981.80;;;5.30
71205;BMP180;58935;54.498;18.544;2023-01-08T09:20:49;99980.80;;;5.30
71205;BMP180;58935;54.498;18.544;2023-01-08T09:23:14;99972.80;;;5.38
71205;BMP180;58935;54.498;18.544;2023-01-08T09:25:40;99956.60;;;5.40
71205;BMP180;58935;54.498;18.544;2023-01-08T09:28:07;99957.00;;;5.32
71205;BMP180;58935;54.498;18.544;2023-01-08T09:30:37;99956.40;;;5.30
71205;BMP180;58935;54.498;18.544;2023-01-08T09:33:03;99958.20;;;5.30
71205;BMP180;58935;54.498;18.544;2023-01-08T09:35:30;99959.20;;;5.30
71205;BMP180;58935;54.498;18.544;2023-01-08T09:37:58;99957.60;;;5.30
71205;BMP180;58935;54.498;18.544;2023-01-08T09:42:59;99946.40;;;5.30
71205;BMP180;58935;54.498;18.544;2023-01-08T09:45:29;99948.60;;;5.30
71205;BMP180;58935;54.498;18.544;2023-01-08T09:47:57;99944.40;;;5.30
71205;BMP180;58935;54.498;18.544;2023-01-08T09:50:26;99936.80;;;5.30
71205;BMP180;58935;54.498;18.544;2023-01-08T09:52:52;99929.20;;;5.30
71205;BMP180;58935;54.498;18.544;2023-01-08T09:55:19;99926.00;;;5.30
71205;BMP180;58935;54.498;18.544;2023-01-08T09:57:46;99926.20;;;5.30
71205;BMP180;58935;54.498;18.544;2023-01-08T10:00:15;99926.80;;;5.30
71205;BMP180;58935;54.498;18.544;2023-01-08T10:02:41;99924.60;;;5.30
71205;BMP180;58935;54.498;18.544;2023-01-08T10:05:11;99920.20;;;5.26
71205;BMP180;58935;54.498;18.544;2023-01-08T10:07:38;99912.60;;;5.22
71205;BMP180;58935;54.498;18.544;2023-01-08T10:10:16;99910.40;;;5.30
71205;BMP180;58935;54.498;18.544;2023-01-08T10:12:43;99907.00;;;5.20
71205;BMP180;58935;54.498;18.544;2023-01-08T10:15:13;99905.40;;;5.24
71205;BMP180;58935;54.498;18.544;2023-01-08T10:17:44;99902.60;;;5.30
71205;BMP180;58935;54.498;18.544;2023-01-08T10:20:14;99898.60;;;5.20
71205;BMP180;58935;54.498;18.544;2023-01-08T10:22:40;99889.00;;;5.20
71205;BMP180;58935;54.498;18.544;2023-01-08T10:25:12;99890.80;;;5.22
71205;BMP180;58935;54.498;18.544;2023-01-08T10:30:14;99894.40;;;5.20
71205;BMP180;58935;54.498;18.544;2023-01-08T10:32:46;99890.20;;;5.20
71205;BMP180;58935;54.498;18.544;2023-01-08T10:35:16;99893.00;;;5.20
71205;BMP180;58935;54.498;18.544;2023-01-08T10:37:43;99883.20;;;5.20
71205;BMP180;58935;54.498;18.544;2023-01-08T10:42:43;99869.00;;;5.20
71205;BMP180;58935;54.498;18.544;2023-01-08T10:45:17;99872.60;;;5.14
71205;BMP180;58935;54.498;18.544;2023-01-08T10:47:47;99860.60;;;5.10
71205;BMP180;58935;54.498;18.544;2023-01-08T10:50:20;99850.40;;;5.10
71205;BMP180;58935;54.498;18.544;2023-01-08T10:52:51;99858.60;;;5.10
71205;BMP180;58935;54.498;18.544;2023-01-08T10:55:21;99860.00;;;5.10
71205;BMP180;58935;54.498;18.544;2023-01-08T10:57:52;99856.20;;;5.10
71205;BMP180;58935;54.498;18.544;2023-01-08T11:00:21;99853.60;;;5.10
71205;BMP180;58935;54.498;18.544;2023-01-08T11:02:49;99850.60;;;5.10
71205;BMP180;58935;54.498;18.544;2023-01-08T11:05:15;99840.80;;;5.12
71205;BMP180;58935;54.498;18.544;2023-01-08T11:07:41;99841.20;;;5.20
71205;BMP180;58935;54.498;18.544;2023-01-08T11:10:20;99843.80;;;5.20
71205;BMP180;58935;54.498;18.544;2023-01-08T11:12:53;99842.80;;;5.16
71205;BMP180;58935;54.498;18.544;2023-01-08T11:15:30;99844.60;;;5.18
71205;BMP180;58935;54.498;18.544;2023-01-08T11:20:29;99839.60;;;5.20
71205;BMP180;58935;54.498;18.544;2023-01-08T11:25:28;99839.00;;;5.10
71205;BMP180;58935;54.498;18.544;2023-01-08T11:27:57;99838.00;;;5.14
71205;BMP180;58935;54.498;18.544;2023-01-08T11:30:25;99829.80;;;5.10
71205;BMP180;58935;54.498;18.544;2023-01-08T11:33:00;99828.60;;;5.18
71205;BMP180;58935;54.498;18.544;2023-01-08T11:35:30;99829.40;;;5.20
71205;BMP180;58935;54.498;18.544;2023-01-08T11:38:01;99830.40;;;5.14
71205;BMP180;58935;54.498;18.544;2023-01-08T11:44:16;99822.80;;;5.12
71205;BMP180;58935;54.498;18.544;2023-01-08T11:46:02;99810.00;;;5.10
71205;BMP180;58935;54.498;18.544;2023-01-08T11:54:04;99797.40;;;5.10
71205;BMP180;58935;54.498;18.544;2023-01-08T11:56:53;99793.20;;;5.10
71205;BMP180;58935;54.498;18.544;2023-01-08T12:02:25;99790.60;;;5.20
71205;BMP180;58935;54.498;18.544;2023-01-08T12:10:03;99777.40;;;5.20
71205;BMP180;58935;54.498;18.544;2023-01-08T12:15:38;99764.00;;;5.20
71205;BMP180;58935;54.498;18.544;2023-01-08T12:18:23;99750.60;;;5.20
71205;BMP180;58935;54.498;18.544;2023-01-08T12:21:32;99750.60;;;5.20
71205;BMP180;58935;54.498;18.544;2023-01-08T12:24:02;99740.60;;;5.20
71205;BMP180;58935;54.498;18.544;2023-01-08T12:29:15;99743.00;;;5.20
71205;BMP180;58935;54.498;18.544;2023-01-08T12:31:57;99743.80;;;5.20
71205;BMP180;58935;54.498;18.544;2023-01-08T12:37:09;99741.00;;;5.20
71205;BMP180;58935;54.498;18.544;2023-01-08T12:39:46;99739.80;;;5.20
71205;BMP180;58935;54.498;18.544;2023-01-08T12:42:17;99734.20;;;5.20
71205;BMP180;58935;54.498;18.544;2023-01-08T12:44:51;99732.60;;;5.20
71205;BMP180;58935;54.498;18.544;2023-01-08T12:47:22;99725.80;;;5.20
71205;BMP180;58935;54.498;18.544;2023-01-08T12:50:01;99717.60;;;5.20
71205;BMP180;58935;54.498;18.544;2023-01-08T12:52:37;99717.40;;;5.20
71205;BMP180;58935;54.498;18.544;2023-01-08T12:55:16;99720.60;;;5.22
71205;BMP180;58935;54.498;18.544;2023-01-08T12:57:53;99716.20;;;5.22
71205;BMP180;58935;54.498;18.544;2023-01-08T13:00:30;99709.60;;;5.30
71205;BMP180;58935;54.498;18.544;2023-01-08T13:03:00;99695.20;;;5.30
71205;BMP180;58935;54.498;18.544;2023-01-08T13:05:31;99697.20;;;5.28
71205;BMP180;58935;54.498;18.544;2023-01-08T13:08:04;99686.00;;;5.28
71205;BMP180;58935;54.498;18.544;2023-01-08T13:10:34;99682.20;;;5.30
71205;BMP180;58935;54.498;18.544;2023-01-08T13:13:01;99680.20;;;5.30
71205;BMP180;58935;54.498;18.544;2023-01-08T13:15:29;99670.40;;;5.30
71205;BMP180;58935;54.498;18.544;2023-01-08T13:17:59;99668.40;;;5.30
71205;BMP180;58935;54.498;18.544;2023-01-08T13:20:28;99672.20;;;5.30
71205;BMP180;58935;54.498;18.544;2023-01-08T13:22:57;99668.60;;;5.30
71205;BMP180;58935;54.498;18.544;2023-01-08T13:25:32;99666.00;;;5.30
71205;BMP180;58935;54.498;18.544;2023-01-08T13:30:47;99659.00;;;5.30
71205;BMP180;58935;54.498;18.544;2023-01-08T13:35:45;99656.00;;;5.30
71205;BMP180;58935;54.498;18.544;2023-01-08T13:38:14;99652.40;;;5.30
71205;BMP180;58935;54.498;18.544;2023-01-08T13:40:50;99655.20;;;5.30
71205;BMP180;58935;54.498;18.544;2023-01-08T13:43:30;99662.40;;;5.30
71205;BMP180;58935;54.498;18.544;2023-01-08T13:46:06;99650.40;;;5.30
71205;BMP180;58935;54.498;18.544;2023-01-08T13:48:39;99651.40;;;5.30
71205;BMP180;58935;54.498;18.544;2023-01-08T13:53:45;99647.60;;;5.30
71205;BMP180;58935;54.498;18.544;2023-01-08T13:56:11;99640.00;;;5.30
71205;BMP180;58935;54.498;18.544;2023-01-08T13:58:44;99636.80;;;5.30
71205;BMP180;58935;54.498;18.544;2023-01-08T14:01:10;99628.40;;;5.30
71205;BMP180;58935;54.498;18.544;2023-01-08T14:03:43;99620.20;;;5.30
71205;BMP180;58935;54.498;18.544;2023-01-08T14:06:28;99608.80;;;5.28
71205;BMP180;58935;54.498;18.544;2023-01-08T14:08:59;99602.00;;;5.28
71205;BMP180;58935;54.498;18.544;2023-01-08T14:13:59;99608.40;;;5.22
71205;BMP180;58935;54.498;18.544;2023-01-08T14:16:25;99596.20;;;5.20
71205;BMP180;58935;54.498;18.544;2023-01-08T14:18:53;99579.00;;;5.20
71205;BMP180;58935;54.498;18.544;2023-01-08T14:21:20;99573.20;;;5.20
71205;BMP180;58935;54.498;18.544;2023-01-08T14:23:48;99592.40;;;5.20
71205;BMP180;58935;54.498;18.544;2023-01-08T14:26:22;99599.60;;;5.22
71205;BMP180;58935;54.498;18.544;2023-01-08T14:28:51;99612.00;;;5.28
71205;BMP180;58935;54.498;18.544;2023-01-08T14:31:20;99612.60;;;5.30
71205;BMP180;58935;54.498;18.544;2023-01-08T14:33:46;99600.80;;;5.30
71205;BMP180;58935;54.498;18.544;2023-01-08T14:36:12;99611.80;;;5.30
71205;BMP180;58935;54.498;18.544;2023-01-08T14:38:38;99613.00;;;5.30
71205;BMP180;58935;54.498;18.544;2023-01-08T14:41:08;99603.00;;;5.30
71205;BMP180;58935;54.498;18.544;2023-01-08T14:43:41;99594.80;;;5.30
71205;BMP180;58935;54.498;18.544;2023-01-08T14:46:25;99587.60;;;5.30
71205;BMP180;58935;54.498;18.544;2023-01-08T14:48:53;99593.40;;;5.30
71205;BMP180;58935;54.498;18.544;2023-01-08T14:51:22;99583.20;;;5.30
71205;BMP180;58935;54.498;18.544;2023-01-08T14:53:52;99584.20;;;5.30
71205;BMP180;58935;54.498;18.544;2023-01-08T14:56:25;99581.80;;;5.30
71205;BMP180;58935;54.498;18.544;2023-01-08T14:58:54;99586.20;;;5.30
71205;BMP180;58935;54.498;18.544;2023-01-08T15:01:26;99585.60;;;5.30